• Join FlightAware (Why Join?)
  • Login
  • US Flag 
09:01PM EDT


 

Airport Tracker/Info


-or-


 

Live Flight TrackerFlight Track Log ✈ N552SC ✈ 24-May-2013 ✈ KHOU - KCHA

Flight Track Log - Related Links

Times and Time Zones

All times are in EDT time to prevent confusion due to time zone crossing. See the N552SC flight status page for this flight to view local times or setup timezone preferences in your user account.

Time Position Orientation Groundspeed Altitude Reporting Facility
EDT Latitude Longitude Course Direction KTS MPH feet Rate Location/Type
02:22PM 29.6328 -95.2847 177° South 149 171 500  Level Houston Center
02:22PM 29.6181 -95.2839 177° South 172 198 1,300 3,060 Climbing Houston Center
02:23PM 29.6172 -95.2414 91° East 231 266 3,900 1,980 Climbing Houston Center
02:24PM 29.6842 -95.2258 11° North 242 278 5,000 480 Climbing Houston Center
02:25PM 29.7492 -95.2611 335° Northwest 256 295 5,000 1,200 Level Houston Center
02:26PM 29.8242 -95.3094 331° Northwest 240 276 7,800 2,340 Climbing Houston Center
02:27PM 29.8678 -95.3306 337° Northwest 241 277 9,900 2,520 Climbing Houston Center
02:28PM 29.9500 -95.3153 North 254 292 12,600 2,340 Climbing Houston Center
02:29PM 30.0372 -95.2931 12° North 295 339 14,800 1,980 Climbing Houston Center
02:30PM 30.1094 -95.2319 36° Northeast 316 364 16,800 1,800 Climbing Houston Center
02:31PM 30.1900 -95.1761 31° Northeast 333 383 18,600 1,740 Climbing Houston Center
02:32PM 30.2772 -95.1272 26° Northeast 344 396 20,400 1,560 Climbing Houston Center
02:33PM 30.3558 -95.0531 39° Northeast 358 412 21,900 1,500 Climbing Houston Center
02:34PM 30.4525 -94.9656 38° Northeast 379 436 23,600 1,500 Climbing Houston Center
02:35PM 30.5328 -94.8861 40° Northeast 384 442 25,100 1,440 Climbing Houston Center
02:36PM 30.5969 -94.7906 52° Northeast 379 436 26,600 1,440 Climbing Houston Center
02:37PM 30.6628 -94.6983 50° Northeast 375 432 28,100 1,500 Climbing Houston Center
02:38PM 30.7242 -94.5744 60° Northeast 371 427 29,700 1,200 Climbing Houston Center
02:39PM 30.7786 -94.4697 59° Northeast 376 433 30,700 960 Climbing Houston Center
02:40PM 30.8353 -94.3603 59° Northeast 390 449 31,700 1,020 Climbing Houston Center
02:41PM 30.8919 -94.2500 59° Northeast 397 457 32,900 1,380 Climbing Houston Center
02:42PM 30.9533 -94.1347 58° Northeast 382 440 34,600 1,680 Climbing Houston Center
02:43PM 31.0119 -94.0192 59° Northeast 379 436 36,400 1,440 Climbing Houston Center
02:44PM 31.0639 -93.9178 59° Northeast 370 426 37,700 960 Climbing Houston Center
02:45PM 31.1139 -93.8225 58° Northeast 374 430 38,500 780 Climbing Houston Center
02:46PM 31.1689 -93.7147 60° Northeast 385 443 39,400 780 Climbing Houston Center
02:47PM 31.1386 -93.6894 60° Northeast  Level FlightAware Approximate
02:47PM 31.2253 -93.6039 59° Northeast 394 453 40,200  Level Houston Center
02:49PM 31.2897 -93.4753 60° Northeast 409 471 41,000 360 Climbing Houston Center
02:50PM 31.3517 -93.3544 59° Northeast 433 498 41,000  Level Houston Center
02:51PM 31.4214 -93.2161 59° Northeast 452 520 41,000  Level Houston Center
02:52PM 31.4875 -93.0836 60° Northeast 468 539 41,000  Level Houston Center
02:53PM 31.5564 -92.9503 59° Northeast 477 549 41,000  Level Houston Center
02:54PM 31.6228 -92.8144 60° Northeast 479 551 41,000  Level Houston Center
02:55PM 31.7031 -92.6514 60° Northeast 480 552 41,000  Level Houston Center
02:56PM 31.7714 -92.5156 59° Northeast 482 555 41,000  Level Houston Center
02:57PM 31.8383 -92.3778 60° Northeast 484 557 41,000  Level Houston Center
02:58PM 31.9056 -92.2403 60° Northeast 486 559 41,000  Level Houston Center
02:59PM 31.9731 -92.1033 60° Northeast 486 559 41,000  Level Houston Center
03:00PM 32.0503 -91.9408 61° Northeast 489 563 41,000  Level Houston Center
03:01PM 32.1172 -91.8028 60° Northeast 486 559 41,000  Level Houston Center
03:02PM 32.1844 -91.6647 60° Northeast 485 558 41,000  Level Houston Center
03:03PM 32.2506 -91.5258 61° Northeast 486 559 41,000  Level Houston Center
03:04PM 32.3167 -91.3875 60° Northeast 483 556 41,000  Level Houston Center
03:05PM 32.3967 -91.2211 60° Northeast 485 558 41,000  Level Houston Center
03:05PM 32.4208 -91.1719 60° Northeast 481 554 41,000  Level Memphis Center
03:06PM 32.4864 -91.0344 60° Northeast 481 554 41,000  Level Memphis Center
03:07PM 32.5433 -90.9069 62° Northeast 481 554 41,000  Level Memphis Center
03:08PM 32.6108 -90.7717 59° Northeast 481 554 41,000  Level Memphis Center
03:09PM 32.6736 -90.6336 62° Northeast 481 554 41,000  Level Memphis Center
03:10PM 32.7367 -90.4981 61° Northeast 481 554 41,000  Level Memphis Center
03:11PM 32.8014 -90.3622 60° Northeast 476 548 41,000  Level Memphis Center
03:12PM 32.8639 -90.2311 60° Northeast 470 541 41,000  Level Memphis Center
03:13PM 32.9242 -90.1022 61° Northeast 458 527 41,000  Level Memphis Center
03:14PM 32.9886 -89.9683 60° Northeast 458 527 41,000  Level Memphis Center
03:15PM 33.0444 -89.8467 61° Northeast 458 527 41,000  Level Memphis Center
03:16PM 33.1147 -89.6850 63° Northeast 458 527 41,000  Level Memphis Center
03:17PM 33.1744 -89.5556 61° Northeast 446 513 41,000  Level Memphis Center
03:18PM 33.2342 -89.4233 62° Northeast 446 513 41,000  Level Memphis Center
03:19PM 33.2914 -89.2961 62° Northeast 446 513 41,000  Level Memphis Center
03:20PM 33.3508 -89.1636 62° Northeast 441 507 41,000  Level Memphis Center
03:21PM 33.4100 -89.0333 61° Northeast 441 507 41,000  Level Memphis Center
03:22PM 33.4669 -88.9031 62° Northeast 441 507 41,000  Level Memphis Center
03:23PM 33.5258 -88.7722 62° Northeast 441 507 41,000  Level Memphis Center
03:24PM 33.5767 -88.6542 63° Northeast 436 502 41,000  Level Memphis Center
03:25PM 33.6331 -88.5233 63° Northeast 436 502 41,000  Level Memphis Center
03:26PM 33.6897 -88.3950 62° Northeast 436 502 41,000  Level Memphis Center
03:27PM 33.7481 -88.2636 62° Northeast 441 507 41,000 -120 Level Memphis Center
03:28PM 33.8142 -88.1144 62° Northeast 441 507 40,800 -1,080 Descending Memphis Center
03:29PM 33.8744 -87.9781 62° Northeast 459 528 38,900 -1,620 Descending Memphis Center
03:30PM 33.9322 -87.8436 63° Northeast 459 528 37,600 -1,800 Descending Memphis Center
03:31PM 33.9839 -87.7244 62° Northeast 452 520 35,400 -2,040 Descending Memphis Center
03:32PM 34.0417 -87.5947 62° Northeast 441 507 33,600 -1,860 Descending Memphis Center
03:33PM 34.0972 -87.4625 63° Northeast 441 507 31,700 -1,920 Descending Memphis Center
03:34PM 34.1544 -87.3328 62° Northeast 442 509 29,800 -1,860 Descending Memphis Center
03:36PM 34.2422 -87.1169 64° Northeast 445 512 26,900 -1,860 Descending Atlanta Center
03:37PM 34.3081 -86.9728 61° Northeast 440 506 25,100 -1,500 Descending Memphis Center
03:38PM 34.3569 -86.8525 64° Northeast 441 507 24,000 -840 Descending Memphis Center
03:39PM 34.4097 -86.7269 63° Northeast 435 501 23,500 -1,200 Descending Memphis Center
03:40PM 34.4622 -86.5989 64° Northeast 424 488 21,600 -1,920 Descending Memphis Center
03:41PM 34.5147 -86.4756 63° Northeast 418 481 19,700 -1,860 Descending Memphis Center
03:42PM 34.5672 -86.3544 62° Northeast 413 475 17,900 -1,800 Descending Memphis Center
03:43PM 34.6133 -86.2389 64° Northeast 399 459 16,200 -1,800 Descending Memphis Center
03:44PM 34.6419 -86.1697 63° Northeast 389 448 15,100 -780 Descending Atlanta Center
03:45PM 34.6897 -86.0547 63° Northeast 383 441 15,000 -960 Descending Atlanta Center
03:46PM 34.7353 -85.9444 63° Northeast 376 433 13,200 -1,860 Descending Atlanta Center
03:47PM 34.7808 -85.8394 62° Northeast 366 421 11,300 -1,200 Descending Atlanta Center
03:48PM 34.8178 -85.7314 67° East 355 409 10,800 -900 Descending Atlanta Center
03:49PM 34.8464 -85.6283 71° East 337 388 9,500 -1,380 Descending Atlanta Center
03:50PM 34.8683 -85.5425 73° East 295 339 8,100 -1,500 Descending Atlanta Center
03:51PM 34.8922 -85.4594 71° East 265 305 6,500 -1,620 Descending Atlanta Center
03:52PM 34.9161 -85.3839 69° East 247 284 4,900 -1,560 Descending Atlanta Center
03:53PM 34.9419 -85.3083 67° East 236 272 3,400 -1,200 Descending Atlanta Center
03:54PM 34.9592 -85.2425 72° East 224 258 2,600 -840 Descending Atlanta Center